Time;durP1;ratioP1;P1;durP2;ratioP2;P2;SDS_P1;SDS_P2;PMS_P1;PMS_P2;Temp;Humidity;BMP_temperature;BMP_pressure;BME280_temperature;BME280_humidity;BME280_pressure;Samples;Min_cycle;Max_cycle;Signal;HPM_P1;HPM_P2
2023/05/06 00:02:21;;;;;;;422.73;399.53;;;14.90;54.60;;;;;;5031493;28;20210;-73
2023/05/06 00:04:47;;;;;;;364.63;345.40;;;14.80;54.50;;;;;;5032167;28;20637;-74
2023/05/06 00:07:13;;;;;;;415.27;392.93;;;14.80;55.60;;;;;;5031925;28;20664;-73
2023/05/06 00:09:38;;;;;;;445.90;420.70;;;14.80;55.50;;;;;;5030709;28;20265;-74
2023/05/06 00:12:04;;;;;;;374.20;353.83;;;14.80;55.50;;;;;;5031846;28;20179;-72
2023/05/06 00:14:30;;;;;;;375.03;353.67;;;14.80;54.90;;;;;;5019308;28;20195;-73
2023/05/06 00:16:55;;;;;;;348.17;328.03;;;14.80;54.40;;;;;;5010802;28;20805;-73
2023/05/06 00:19:21;;;;;;;589.07;555.43;;;14.70;54.60;;;;;;5011753;28;20317;-73
2023/05/06 00:21:47;;;;;;;358.93;339.63;;;14.60;55.00;;;;;;5011895;28;20178;-73
2023/05/06 00:24:12;;;;;;;416.87;393.57;;;14.60;55.40;;;;;;5011917;28;20555;-72
2023/05/06 00:26:38;;;;;;;382.27;361.70;;;14.60;56.60;;;;;;5011997;28;20216;-72
2023/05/06 00:29:03;;;;;;;375.43;354.10;;;14.60;56.80;;;;;;5011916;28;20297;-73
2023/05/06 00:31:29;;;;;;;451.63;425.37;;;14.60;57.60;;;;;;5011761;28;20191;-74
2023/05/06 00:33:54;;;;;;;387.73;366.10;;;14.60;58.20;;;;;;5012035;28;20186;-73
2023/05/06 00:36:20;;;;;;;409.23;387.13;;;14.60;57.10;;;;;;5011910;28;20218;-73
2023/05/06 00:38:45;;;;;;;415.37;392.00;;;14.60;58.00;;;;;;5011657;28;20563;-74
2023/05/06 00:41:11;;;;;;;415.77;394.57;;;14.60;57.00;;;;;;5031575;28;20182;-72
2023/05/06 00:43:36;;;;;;;341.97;323.53;;;14.60;57.50;;;;;;5031407;28;20182;-72
2023/05/06 00:46:02;;;;;;;398.73;377.73;;;14.70;57.20;;;;;;5031715;28;20178;-73
2023/05/06 00:48:27;;;;;;;375.00;354.07;;;14.70;56.30;;;;;;5032176;28;20237;-75
2023/05/06 00:50:54;;;;;;;535.60;505.50;;;14.70;55.50;;;;;;5031809;28;20190;-73
2023/05/06 00:53:20;;;;;;;492.20;465.43;;;14.70;55.50;;;;;;5031359;28;20202;-73
2023/05/06 00:55:48;;;;;;;423.77;400.17;;;14.70;55.50;;;;;;5031642;28;20563;-73
2023/05/06 00:58:13;;;;;;;431.47;407.87;;;14.70;55.50;;;;;;5031557;28;20965;-74
2023/05/06 01:00:39;;;;;;;352.30;332.97;;;14.70;55.60;;;;;;5030173;28;20417;-73
2023/05/06 01:03:05;;;;;;;340.97;321.90;;;14.70;56.30;;;;;;5028739;28;20187;-72
2023/05/06 01:05:38;;;;;;;499.97;471.53;;;14.70;55.50;;;;;;5011457;28;20176;-73
2023/05/06 01:08:20;;;;;;;333.27;315.13;;;14.60;55.50;;;;;;5011429;28;20380;-72
2023/05/06 01:11:01;;;;;;;378.13;358.17;;;14.60;57.10;;;;;;5011491;28;20426;-72
2023/05/06 01:13:45;;;;;;;371.83;351.23;;;14.70;56.30;;;;;;5011071;28;20428;-73
2023/05/06 01:16:13;;;;;;;421.10;397.57;;;14.60;56.60;;;;;;5011263;28;20453;-74
2023/05/06 01:18:39;;;;;;;459.87;433.50;;;14.60;57.10;;;;;;5029500;28;20489;-73
2023/05/06 01:21:06;;;;;;;395.37;373.97;;;14.60;57.50;;;;;;5031098;28;20425;-73
2023/05/06 01:23:51;;;;;;;360.80;340.80;;;14.50;57.60;;;;;;5030853;28;20425;-73
2023/05/06 01:26:16;;;;;;;368.07;348.37;;;14.40;57.70;;;;;;5030775;28;20425;-73
2023/05/06 01:28:42;;;;;;;398.97;376.47;;;14.40;58.00;;;;;;5028949;28;20539;-73
2023/05/06 01:31:12;;;;;;;364.50;344.17;;;14.30;57.40;;;;;;5014737;28;20218;-74
2023/05/06 01:33:43;;;;;;;433.37;409.50;;;14.20;57.70;;;;;;5014807;28;20229;-74
2023/05/06 01:36:20;;;;;;;500.63;472.50;;;14.10;56.60;;;;;;5014901;28;20593;-75
2023/05/06 01:39:07;;;;;;;418.57;394.67;;;13.90;57.80;;;;;;5014758;28;20449;-74
2023/05/06 01:41:34;;;;;;;385.17;363.43;;;13.80;59.00;;;;;;5014449;28;20424;-75
2023/05/06 01:44:00;;;;;;;389.17;367.60;;;13.80;59.60;;;;;;5014970;28;20422;-75
2023/05/06 01:46:28;;;;;;;330.33;311.20;;;13.70;59.90;;;;;;5014676;28;20508;-74
2023/05/06 01:48:56;;;;;;;305.17;287.93;;;13.60;60.90;;;;;;5014578;28;20992;-75
2023/05/06 01:51:22;;;;;;;317.20;299.20;;;13.60;61.70;;;;;;5013204;28;20825;-74
2023/05/06 01:53:48;;;;;;;326.07;308.30;;;13.50;60.80;;;;;;5015003;28;20506;-74
2023/05/06 01:56:15;;;;;;;343.33;323.03;;;13.40;60.90;;;;;;5015611;28;20219;-74
2023/05/06 01:58:40;;;;;;;378.80;358.90;;;13.30;62.00;;;;;;5016382;28;20205;-74
2023/05/06 02:01:06;;;;;;;339.60;320.03;;;13.30;62.10;;;;;;5015149;28;20434;-74
2023/05/06 02:03:31;;;;;;;293.13;275.97;;;13.30;64.20;;;;;;5034460;28;20261;-73
2023/05/06 02:05:57;;;;;;;278.93;262.87;;;13.20;64.20;;;;;;5034209;28;20176;-73
2023/05/06 02:08:22;;;;;;;355.40;336.60;;;13.30;64.30;;;;;;5023917;28;20266;-72
2023/05/06 02:10:48;;;;;;;293.47;276.97;;;13.30;64.30;;;;;;5014495;28;20258;-72
2023/05/06 02:13:13;;;;;;;280.57;264.37;;;13.20;64.20;;;;;;5013947;28;20184;-74
2023/05/06 02:15:39;;;;;;;338.20;319.17;;;13.30;64.30;;;;;;5014362;28;20203;-73
2023/05/06 02:18:05;;;;;;;363.37;342.93;;;13.30;64.30;;;;;;5014267;28;20202;-73
2023/05/06 02:20:30;;;;;;;347.73;327.60;;;13.20;64.60;;;;;;5028140;28;20271;-74
2023/05/06 02:22:56;;;;;;;338.90;320.50;;;13.20;64.70;;;;;;5033145;28;20199;-74
2023/05/06 02:25:22;;;;;;;314.30;296.37;;;13.20;65.00;;;;;;5033904;28;20314;-73
2023/05/06 02:27:47;;;;;;;371.93;351.03;;;13.20;64.50;;;;;;5018445;28;20225;-74
2023/05/06 02:30:13;;;;;;;337.70;318.13;;;13.10;63.40;;;;;;5014187;28;20776;-74
2023/05/06 02:32:39;;;;;;;337.80;318.87;;;13.10;63.20;;;;;;5013856;28;20175;-73
2023/05/06 02:35:05;;;;;;;265.50;249.30;;;13.10;61.70;;;;;;5013740;28;20420;-73
2023/05/06 02:37:31;;;;;;;300.37;283.33;;;12.90;62.20;;;;;;5013575;28;20462;-73
2023/05/06 02:39:57;;;;;;;376.07;355.20;;;12.80;62.40;;;;;;5029550;28;20896;-74
2023/05/06 02:42:22;;;;;;;291.33;274.37;;;12.80;63.30;;;;;;5033050;28;20411;-74
2023/05/06 02:44:48;;;;;;;278.73;262.03;;;12.70;62.30;;;;;;5033656;28;20185;-74
2023/05/06 02:47:13;;;;;;;345.40;326.13;;;12.60;63.60;;;;;;5032235;28;20204;-74
2023/05/06 02:49:39;;;;;;;299.83;282.30;;;12.60;63.60;;;;;;5033340;28;20203;-71
2023/05/06 02:52:04;;;;;;;370.07;349.10;;;12.50;63.50;;;;;;5018158;28;20183;-75
2023/05/06 02:54:30;;;;;;;280.83;264.67;;;12.40;63.40;;;;;;5016858;28;20194;-74
2023/05/06 02:56:55;;;;;;;304.07;286.50;;;12.40;64.40;;;;;;5013424;28;20212;-74
2023/05/06 02:59:21;;;;;;;263.10;247.53;;;12.40;64.30;;;;;;5013251;28;20176;-74
2023/05/06 03:01:47;;;;;;;299.67;282.37;;;12.30;64.90;;;;;;5016514;28;20241;-75
2023/05/06 03:04:12;;;;;;;288.00;270.63;;;12.30;65.00;;;;;;5032949;28;20181;-73
2023/05/06 03:06:38;;;;;;;292.03;274.30;;;12.30;65.50;;;;;;5031672;28;20179;-73
2023/05/06 03:09:04;;;;;;;240.90;225.77;;;12.20;63.20;;;;;;5032886;28;20613;-74
2023/05/06 03:11:30;;;;;;;383.90;362.50;;;12.10;64.40;;;;;;5032677;28;20175;-74
2023/05/06 03:13:56;;;;;;;313.47;295.23;;;12.10;64.70;;;;;;5030027;28;20271;-74
2023/05/06 03:16:22;;;;;;;390.00;368.33;;;12.00;64.10;;;;;;5013022;28;20835;-73
2023/05/06 03:18:48;;;;;;;282.07;265.43;;;12.00;65.40;;;;;;5012934;28;20539;-73
2023/05/06 03:21:13;;;;;;;348.00;328.33;;;12.00;65.80;;;;;;5012938;28;20411;-74
2023/05/06 03:23:39;;;;;;;259.47;243.97;;;11.90;65.90;;;;;;5012770;28;20543;-73
2023/05/06 03:26:04;;;;;;;295.57;277.90;;;11.90;66.60;;;;;;5016784;28;20263;-74
2023/05/06 03:28:30;;;;;;;306.30;288.77;;;11.90;65.70;;;;;;5032172;28;20630;-74
2023/05/06 03:30:56;;;;;;;297.30;279.80;;;11.80;65.50;;;;;;5032529;28;20187;-74
2023/05/06 03:33:21;;;;;;;257.83;242.37;;;11.80;65.50;;;;;;5032264;28;20235;-74
2023/05/06 03:35:47;;;;;;;319.67;301.07;;;11.70;64.80;;;;;;5032352;28;20209;-74
2023/05/06 03:38:12;;;;;;;341.63;322.10;;;11.60;65.20;;;;;;5027663;28;20283;-73
2023/05/06 03:40:38;;;;;;;330.03;310.10;;;11.50;65.10;;;;;;5031680;28;20182;-75
2023/05/06 03:43:03;;;;;;;356.37;335.10;;;11.50;66.00;;;;;;5032052;28;20637;-73
2023/05/06 03:45:29;;;;;;;270.17;253.10;;;11.50;66.10;;;;;;5032353;28;20198;-73
2023/05/06 03:47:55;;;;;;;330.70;310.50;;;11.40;66.80;;;;;;5032235;28;20199;-73
2023/05/06 03:50:21;;;;;;;257.30;241.53;;;11.40;67.00;;;;;;5027305;28;20229;-75
2023/05/06 03:52:46;;;;;;;266.67;249.77;;;11.40;67.30;;;;;;5011805;28;20498;-74
2023/05/06 03:55:12;;;;;;;237.77;222.77;;;11.40;68.10;;;;;;5013010;28;20241;-74
2023/05/06 03:57:38;;;;;;;325.73;306.13;;;11.50;69.20;;;;;;5012654;28;20688;-74
2023/05/06 04:00:04;;;;;;;270.97;254.50;;;11.50;69.80;;;;;;5012586;28;20212;-73
2023/05/06 04:02:29;;;;;;;239.73;224.03;;;11.50;69.70;;;;;;5013221;28;20180;-75
2023/05/06 04:04:55;;;;;;;283.53;265.67;;;11.50;70.20;;;;;;5029739;28;20436;-75
2023/05/06 04:07:20;;;;;;;320.40;300.87;;;11.60;70.20;;;;;;5031732;28;20198;-75
2023/05/06 04:09:46;;;;;;;313.30;293.90;;;11.70;71.30;;;;;;5031968;28;20679;-74
2023/05/06 04:12:11;;;;;;;215.93;200.93;;;11.70;70.00;;;;;;5031597;28;20272;-74
2023/05/06 04:14:38;;;;;;;229.27;214.60;;;11.80;70.10;;;;;;5026322;28;20606;-75
2023/05/06 04:17:04;;;;;;;279.37;262.90;;;11.80;71.10;;;;;;5011000;28;20211;-74
2023/05/06 04:19:31;;;;;;;307.53;288.50;;;11.90;70.30;;;;;;5011857;28;20425;-74
2023/05/06 04:21:57;;;;;;;241.43;226.30;;;11.90;69.20;;;;;;5011574;28;20204;-74
2023/05/06 04:24:22;;;;;;;293.13;274.97;;;12.00;68.80;;;;;;5011964;28;20419;-74
2023/05/06 04:26:48;;;;;;;325.90;306.30;;;12.00;67.30;;;;;;5017345;28;20965;-72
2023/05/06 04:29:14;;;;;;;261.90;245.33;;;12.00;66.70;;;;;;5032203;28;20549;-76
2023/05/06 04:31:39;;;;;;;279.97;262.80;;;11.90;66.40;;;;;;5032453;28;20633;-75
2023/05/06 04:34:05;;;;;;;293.10;275.07;;;12.00;66.50;;;;;;5032490;28;20454;-73
2023/05/06 04:36:31;;;;;;;266.40;249.93;;;12.00;66.50;;;;;;5032385;28;20217;-77
2023/05/06 04:38:57;;;;;;;225.47;209.23;;;12.00;66.00;;;;;;5026220;28;20704;-76
2023/05/06 04:41:22;;;;;;;332.90;312.33;;;12.00;64.60;;;;;;5011941;28;20183;-76
2023/05/06 04:43:48;;;;;;;289.93;272.50;;;11.90;64.70;;;;;;5012140;28;20419;-76
2023/05/06 04:46:13;;;;;;;303.90;285.57;;;11.90;63.00;;;;;;5012233;28;20544;-75
2023/05/06 04:48:40;;;;;;;316.20;297.10;;;11.90;63.00;;;;;;5012167;28;20238;-74
2023/05/06 04:51:06;;;;;;;329.00;309.63;;;11.80;62.90;;;;;;5017449;28;20207;-75
2023/05/06 04:53:31;;;;;;;275.63;258.73;;;11.80;63.80;;;;;;5030633;28;20458;-75
2023/05/06 04:55:57;;;;;;;273.50;256.30;;;11.80;65.20;;;;;;5031078;28;20457;-75
2023/05/06 04:58:22;;;;;;;276.00;259.97;;;11.90;65.20;;;;;;5031335;28;20258;-75
2023/05/06 05:00:48;;;;;;;281.17;264.10;;;12.00;65.80;;;;;;5031477;28;20516;-75
2023/05/06 05:03:14;;;;;;;241.30;226.53;;;12.10;65.60;;;;;;5024884;28;20198;-75
2023/05/06 05:05:39;;;;;;;275.60;258.30;;;12.20;64.10;;;;;;5014793;28;20185;-75
2023/05/06 05:08:05;;;;;;;207.40;193.20;;;12.20;63.20;;;;;;5015680;28;20208;-75
2023/05/06 05:10:30;;;;;;;211.87;197.87;;;12.30;61.80;;;;;;5015538;28;20177;-75
2023/05/06 05:12:56;;;;;;;225.40;210.67;;;12.30;62.40;;;;;;5015139;28;20187;-74
2023/05/06 05:15:22;;;;;;;254.77;238.03;;;12.40;62.40;;;;;;5019434;28;20183;-75
2023/05/06 05:17:49;;;;;;;239.53;224.53;;;12.40;63.40;;;;;;5015035;28;20459;-75
2023/05/06 05:20:14;;;;;;;285.73;267.90;;;12.50;63.20;;;;;;5013841;28;20180;-75
2023/05/06 05:22:40;;;;;;;275.97;259.37;;;12.60;61.00;;;;;;5014996;28;20545;-73
2023/05/06 05:25:06;;;;;;;276.60;260.10;;;12.80;61.90;;;;;;5014927;28;20182;-75
2023/05/06 05:27:32;;;;;;;285.20;268.40;;;13.10;63.60;;;;;;5019280;28;20209;-73
2023/05/06 05:29:57;;;;;;;312.40;294.40;;;13.90;66.50;;;;;;5034733;28;20486;-73
2023/05/06 05:32:23;;;;;;;384.47;362.53;;;14.90;66.70;;;;;;5034516;28;20266;-75
2023/05/06 05:34:48;;;;;;;397.30;374.93;;;16.50;69.00;;;;;;5034936;28;20671;-75
2023/05/06 05:37:14;;;;;;;413.43;388.97;;;18.30;35.80;;;;;;5035210;28;20639;-73
2023/05/06 05:39:39;;;;;;;389.13;362.80;;;19.40;22.70;;;;;;5024126;28;20182;-75
2023/05/06 05:42:05;;;;;;;540.00;501.90;;;20.20;17.70;;;;;;5015501;28;20210;-76
2023/05/06 05:44:30;;;;;;;659.17;608.23;;;21.50;12.60;;;;;;5027133;28;20183;-76
2023/05/06 05:46:56;;;;;;;636.57;592.30;;;22.90;9.60;;;;;;5019258;28;20199;-77
2023/05/06 05:49:21;;;;;;;748.10;690.90;;;24.50;6.10;;;;;;5015507;28;20183;-77
2023/05/06 05:51:47;;;;;;;794.27;731.43;;;25.80;3.10;;;;;;5015051;28;20653;-77
2023/05/06 05:54:13;;;;;;;822.07;759.40;;;26.30;1.60;;;;;;5015708;28;20650;-77
2023/05/06 05:56:39;;;;;;;786.73;727.20;;;26.50;1.00;;;;;;5028640;28;20360;-77
2023/05/06 05:59:04;;;;;;;843.53;781.00;;;26.00;1.00;;;;;;5034389;28;20557;-76
2023/05/06 06:01:30;;;;;;;773.20;711.53;;;25.80;2.10;;;;;;5034288;28;20282;-76
2023/05/06 06:03:56;;;;;;;812.80;747.53;;;26.30;1.00;;;;;;5034422;28;20180;-77
2023/05/06 06:06:23;;;;;;;941.90;857.70;;;27.40;1.00;;;;;;5035050;28;20191;-76
2023/05/06 06:08:48;;;;;;;983.47;892.77;;;28.30;1.00;;;;;;5017404;28;20998;-78
2023/05/06 06:11:14;;;;;;;927.27;845.47;;;29.00;1.00;;;;;;5026619;28;20434;-76
2023/05/06 06:13:40;;;;;;;999.27;907.20;;;28.70;1.00;;;;;;5034322;28;20183;-75
2023/05/06 06:16:05;;;;;;;870.23;794.80;;;26.50;1.00;;;;;;5033457;28;20742;-75
2023/05/06 06:18:31;;;;;;;916.90;843.53;;;24.50;1.30;;;;;;5034632;28;20230;-75
2023/05/06 06:20:56;;;;;;;801.67;742.97;;;23.10;3.40;;;;;;5034575;28;20185;-75
2023/05/06 06:23:23;;;;;;;807.23;749.87;;;21.50;5.80;;;;;;5040526;28;20184;-74
2023/05/06 06:25:48;;;;;;;697.67;649.50;;;20.50;9.40;;;;;;5039858;28;20660;-74
2023/05/06 06:28:14;;;;;;;577.83;540.57;;;19.70;11.90;;;;;;5036032;28;20453;-71
2023/05/06 06:30:40;;;;;;;610.83;569.57;;;18.80;13.90;;;;;;5033993;28;20179;-70
2023/05/06 06:33:05;;;;;;;449.07;420.93;;;18.20;16.20;;;;;;5017038;28;20196;-70
2023/05/06 06:35:31;;;;;;;428.73;403.03;;;17.70;19.00;;;;;;5014226;28;20908;-71
2023/05/06 06:37:56;;;;;;;396.17;370.80;;;17.60;20.30;;;;;;5013882;28;20207;-70
2023/05/06 06:40:22;;;;;;;506.77;473.57;;;17.80;21.50;;;;;;5014004;28;20180;-71
2023/05/06 06:42:48;;;;;;;486.30;457.53;;;18.00;20.60;;;;;;5013691;28;20182;-72
2023/05/06 06:45:14;;;;;;;469.73;440.83;;;17.90;19.60;;;;;;5031467;28;20180;-72
2023/05/06 06:47:40;;;;;;;514.70;483.03;;;18.10;19.60;;;;;;5033219;28;20207;-72
2023/05/06 06:50:07;;;;;;;446.40;417.30;;;17.90;20.40;;;;;;5033914;28;20509;-72
2023/05/06 06:52:32;;;;;;;589.37;552.07;;;18.20;21.00;;;;;;5033172;28;20481;-71
2023/05/06 06:54:58;;;;;;;508.77;479.27;;;18.80;18.40;;;;;;5033100;28;20930;-71
2023/05/06 06:57:23;;;;;;;524.33;493.60;;;18.60;18.30;;;;;;5011018;28;20354;-71
2023/05/06 06:59:51;;;;;;;549.50;514.00;;;18.50;18.90;;;;;;5022118;28;20527;-71
2023/05/06 07:02:16;;;;;;;549.10;511.40;;;18.00;18.00;;;;;;5028139;28;20274;-70
2023/05/06 07:04:42;;;;;;;376.00;351.97;;;18.30;19.80;;;;;;5028865;28;20549;-71
2023/05/06 07:07:07;;;;;;;483.77;452.03;;;19.20;18.20;;;;;;5028870;28;20215;-70
2023/05/06 07:09:33;;;;;;;673.70;630.53;;;21.40;15.10;;;;;;5029063;28;20195;-71
2023/05/06 07:12:00;;;;;;;618.90;578.50;;;22.90;8.80;;;;;;5028598;28;20570;-70
2023/05/06 07:14:26;;;;;;;679.83;633.87;;;23.00;6.70;;;;;;5028600;28;20270;-71
2023/05/06 07:16:51;;;;;;;595.97;557.30;;;22.50;7.70;;;;;;5029469;28;21044;-72
2023/05/06 07:19:17;;;;;;;695.67;648.07;;;23.30;7.00;;;;;;5033013;28;20229;-70
2023/05/06 07:21:42;;;;;;;838.87;771.80;;;23.70;5.50;;;;;;5031243;28;20179;-72
2023/05/06 07:24:08;;;;;;;839.83;772.63;;;24.40;3.90;;;;;;5033181;28;20218;-72
2023/05/06 07:26:37;;;;;;;919.77;836.47;;;24.60;3.70;;;;;;5033029;28;20182;-73
2023/05/06 07:29:03;;;;;;;698.33;649.53;;;23.10;4.20;;;;;;5032729;28;20264;-72
2023/05/06 07:31:30;;;;;;;707.60;659.30;;;22.70;7.20;;;;;;5032860;28;20479;-73
2023/05/06 07:33:57;;;;;;;766.73;711.17;;;23.90;5.60;;;;;;5032742;28;20453;-73
2023/05/06 07:36:22;;;;;;;727.37;678.93;;;25.10;3.60;;;;;;5032733;28;20806;-72
2023/05/06 07:38:48;;;;;;;832.83;766.23;;;25.40;1.90;;;;;;5032714;28;20449;-72
2023/05/06 07:41:14;;;;;;;829.80;763.83;;;25.70;1.80;;;;;;5032565;28;20183;-73
2023/05/06 07:43:39;;;;;;;752.97;699.53;;;26.10;1.00;;;;;;5032407;28;20171;-72
2023/05/06 07:46:05;;;;;;;990.60;903.50;;;26.00;1.00;;;;;;5032558;28;20183;-72
2023/05/06 07:48:34;;;;;;;849.10;780.93;;;26.20;1.50;;;;;;5032664;28;20317;-73
2023/05/06 07:50:59;;;;;;;810.50;745.03;;;27.00;1.00;;;;;;5032471;28;20194;-72
2023/05/06 07:53:25;;;;;;;872.77;801.77;;;26.90;1.00;;;;;;5032492;28;20414;-73
2023/05/06 07:55:54;;;;;;;860.87;794.07;;;26.40;1.00;;;;;;5032675;28;20199;-72
2023/05/06 07:58:19;;;;;;;749.30;697.93;;;26.30;1.00;;;;;;5032649;28;20442;-72
2023/05/06 08:00:45;;;;;;;775.90;713.27;;;27.30;1.00;;;;;;5032550;28;20493;-72
2023/05/06 08:03:10;;;;;;;815.00;751.83;;;28.40;1.00;;;;;;5030997;28;20187;-73
2023/05/06 08:05:36;;;;;;;792.30;731.00;;;29.30;1.00;;;;;;5032166;28;20553;-73
2023/05/06 08:08:01;;;;;;;871.87;806.33;;;31.30;1.00;;;;;;5032059;28;20195;-72
2023/05/06 08:10:27;;;;;;;1041.63;942.27;;;31.50;1.00;;;;;;5032318;28;20175;-73
2023/05/06 08:12:52;;;;;;;957.70;864.10;;;31.70;1.00;;;;;;5030798;28;20176;-73
2023/05/06 08:15:18;;;;;;;1074.77;963.27;;;31.70;1.00;;;;;;5032206;28;20466;-73
2023/05/06 08:17:44;;;;;;;911.00;838.43;;;30.90;1.00;;;;;;5032263;28;20214;-72
2023/05/06 08:20:10;;;;;;;896.93;824.27;;;30.70;1.00;;;;;;5031936;28;20645;-73
2023/05/06 08:22:35;;;;;;;892.47;820.50;;;31.10;1.00;;;;;;5031790;28;20175;-72
2023/05/06 08:25:01;;;;;;;1071.87;957.13;;;32.50;1.00;;;;;;5032013;28;20410;-73
2023/05/06 08:27:26;;;;;;;921.40;842.93;;;33.50;1.00;;;;;;5031774;28;20404;-73
2023/05/06 08:29:52;;;;;;;1030.47;931.77;;;33.80;1.00;;;;;;5031950;28;20207;-73
2023/05/06 08:32:17;;;;;;;1002.70;911.40;;;33.90;1.00;;;;;;5031626;28;20183;-72
2023/05/06 08:34:43;;;;;;;993.87;909.47;;;33.10;1.00;;;;;;5031848;28;20237;-73
2023/05/06 08:37:09;;;;;;;969.80;887.53;;;33.40;1.00;;;;;;5031777;28;20214;-73
2023/05/06 08:39:34;;;;;;;1066.43;950.53;;;32.60;1.00;;;;;;5031313;28;20259;-73
2023/05/06 08:42:01;;;;;;;1042.47;944.77;;;32.20;1.00;;;;;;5031468;28;20183;-73
2023/05/06 08:44:27;;;;;;;989.63;902.00;;;31.60;1.00;;;;;;5031612;28;20203;-72
2023/05/06 08:46:53;;;;;;;990.77;902.83;;;32.50;1.00;;;;;;5031836;28;20449;-73
2023/05/06 08:49:19;;;;;;;956.40;877.17;;;32.20;1.00;;;;;;5031815;28;20624;-73
2023/05/06 08:51:45;;;;;;;1038.70;937.73;;;32.60;1.00;;;;;;5031590;28;20193;-72
2023/05/06 08:54:11;;;;;;;1045.67;945.77;;;33.60;1.00;;;;;;5031780;28;20175;-73
2023/05/06 08:56:41;;;;;;;1055.03;953.00;;;34.90;1.00;;;;;;5031470;28;20457;-73
2023/05/06 08:59:09;;;;;;;1054.30;947.23;;;35.50;1.00;;;;;;5031503;28;20464;-72
2023/05/06 09:01:35;;;;;;;1066.73;965.80;;;32.50;1.00;;;;;;5031397;28;20552;-72
2023/05/06 09:04:06;;;;;;;1046.23;946.07;;;30.90;1.00;;;;;;5031765;28;20418;-73
2023/05/06 09:06:31;;;;;;;903.77;830.10;;;28.60;1.00;;;;;;5032005;28;20511;-72
2023/05/06 09:08:57;;;;;;;922.80;847.73;;;26.80;1.00;;;;;;5031813;28;20947;-72
2023/05/06 09:11:29;;;;;;;950.80;867.40;;;25.70;1.00;;;;;;5031746;28;20194;-73
2023/05/06 09:14:17;;;;;;;844.70;779.57;;;24.70;1.00;;;;;;5031620;28;20186;-71
2023/05/06 09:16:45;;;;;;;855.50;788.03;;;23.50;1.00;;;;;;5026060;28;20564;-72
2023/05/06 09:19:11;;;;;;;788.33;728.50;;;23.00;1.00;;;;;;5031755;28;20417;-70
2023/05/06 09:21:40;;;;;;;830.97;768.93;;;22.60;1.00;;;;;;5031346;28;20417;-73
2023/05/06 09:24:08;;;;;;;777.40;721.10;;;22.10;1.00;;;;;;5031602;28;20781;-72
2023/05/06 09:26:35;;;;;;;709.93;658.73;;;21.50;1.10;;;;;;5031552;28;20421;-72
2023/05/06 09:29:02;;;;;;;678.77;634.87;;;21.20;1.00;;;;;;5031609;28;20464;-75
2023/05/06 09:31:28;;;;;;;701.60;650.30;;;21.10;2.40;;;;;;5031675;28;20426;-76
2023/05/06 09:33:56;;;;;;;697.63;647.87;;;21.10;1.50;;;;;;5031541;28;20440;-71
2023/05/06 09:36:23;;;;;;;668.43;623.13;;;20.90;1.50;;;;;;5032989;28;20453;-74
2023/05/06 09:38:49;;;;;;;692.70;644.00;;;20.70;2.30;;;;;;5032353;28;20437;-71
2023/05/06 09:41:20;;;;;;;576.60;539.77;;;20.80;1.00;;;;;;5032758;28;20437;-71
2023/05/06 09:43:48;;;;;;;880.73;811.87;;;21.00;1.00;;;;;;5025841;28;20538;-71
2023/05/06 09:46:17;;;;;;;667.40;624.33;;;21.00;1.00;;;;;;5035496;28;20451;-71
2023/05/06 09:48:45;;;;;;;650.83;606.67;;;21.10;1.00;;;;;;5030775;28;20977;-71
2023/05/06 09:51:12;;;;;;;615.07;572.67;;;21.10;1.00;;;;;;5056357;28;20782;-71
2023/05/06 09:53:38;;;;;;;769.67;714.80;;;20.80;1.20;;;;;;5059178;28;20950;-71
2023/05/06 09:56:07;;;;;;;740.03;685.13;;;20.80;1.80;;;;;;5058810;28;20794;-71
2023/05/06 09:58:34;;;;;;;851.43;780.33;;;20.90;1.00;;;;;;5057747;28;20459;-71
2023/05/06 10:01:02;;;;;;;774.40;718.30;;;20.80;1.00;;;;;;5058979;28;20428;-71
2023/05/06 10:03:29;;;;;;;804.00;745.67;;;20.70;1.00;;;;;;5048841;28;20426;-71
2023/05/06 10:06:01;;;;;;;724.67;672.47;;;20.50;1.00;;;;;;5036719;28;20977;-71
2023/05/06 10:08:27;;;;;;;691.00;642.90;;;20.30;1.00;;;;;;5038958;28;20445;-72
2023/05/06 10:10:54;;;;;;;812.83;752.90;;;20.40;1.30;;;;;;5035254;28;20440;-72
2023/05/06 10:13:21;;;;;;;598.17;561.27;;;20.30;1.00;;;;;;5020788;28;20430;-71
2023/05/06 10:15:48;;;;;;;713.93;660.93;;;20.50;1.00;;;;;;5016063;28;20534;-72
2023/05/06 10:18:16;;;;;;;570.43;537.23;;;20.70;1.00;;;;;;5030112;28;20465;-72
2023/05/06 10:20:43;;;;;;;657.97;613.00;;;20.80;1.00;;;;;;5031321;28;20441;-72
2023/05/06 10:23:30;;;;;;;686.03;635.33;;;20.80;1.00;;;;;;5028163;28;20430;-73
2023/05/06 10:25:56;;;;;;;668.07;623.33;;;20.70;1.00;;;;;;5033327;28;20430;-73
2023/05/06 10:28:22;;;;;;;663.57;614.37;;;21.00;1.00;;;;;;5055565;22;20490;-70
2023/05/06 10:30:50;;;;;;;704.47;655.67;;;21.00;1.40;;;;;;5030495;28;20415;-70
2023/05/06 10:33:16;;;;;;;733.00;680.97;;;21.20;1.00;;;;;;5029144;28;20426;-70
2023/05/06 10:35:54;;;;;;;687.37;639.17;;;21.20;1.00;;;;;;5029449;28;20438;-70
2023/05/06 10:38:26;;;;;;;822.47;758.50;;;21.50;1.00;;;;;;5017921;28;20818;-70
2023/05/06 10:40:53;;;;;;;633.83;594.40;;;21.60;1.00;;;;;;5009642;28;20427;-71
2023/05/06 10:43:29;;;;;;;615.20;579.50;;;21.70;1.00;;;;;;5010877;28;20470;-71
2023/05/06 10:46:08;;;;;;;818.07;757.10;;;22.00;1.00;;;;;;5005006;28;20477;-69
2023/05/06 10:48:36;;;;;;;724.40;673.57;;;22.30;1.00;;;;;;5002089;28;20453;-72
2023/05/06 10:51:21;;;;;;;763.77;710.27;;;22.20;1.00;;;;;;4994022;28;20498;-70
2023/05/06 10:53:59;;;;;;;786.73;729.80;;;22.00;1.00;;;;;;4994219;28;20430;-70
2023/05/06 10:56:29;;;;;;;731.13;679.37;;;21.80;1.00;;;;;;4994382;28;20451;-70
2023/05/06 10:58:56;;;;;;;782.77;727.17;;;21.90;1.00;;;;;;4994047;28;20444;-70
2023/05/06 11:01:25;;;;;;;773.00;717.07;;;22.10;1.00;;;;;;4994351;28;20916;-70
2023/05/06 11:03:51;;;;;;;762.83;708.80;;;22.20;1.00;;;;;;4993657;28;20474;-70
2023/05/06 11:06:45;;;;;;;804.53;746.13;;;22.20;1.00;;;;;;4994173;28;20420;-70
2023/05/06 11:09:26;;;;;;;709.63;664.80;;;22.10;1.00;;;;;;4992671;28;20894;-70
2023/05/06 11:12:03;;;;;;;647.73;607.37;;;21.90;1.00;;;;;;4992684;28;20832;-70
2023/05/06 11:14:37;;;;;;;722.27;673.97;;;21.70;1.00;;;;;;4993764;28;20447;-71
2023/05/06 11:17:07;;;;;;;763.97;711.63;;;21.80;1.00;;;;;;4993316;28;20979;-71
2023/05/06 11:19:35;;;;;;;877.13;809.93;;;21.80;1.00;;;;;;4993680;28;20446;-70
2023/05/06 11:22:02;;;;;;;821.63;760.20;;;21.60;1.00;;;;;;4994028;28;20420;-70
2023/05/06 11:24:46;;;;;;;822.73;765.83;;;21.30;1.00;;;;;;4993756;28;20481;-70
2023/05/06 11:27:16;;;;;;;859.03;793.40;;;21.50;1.00;;;;;;4993535;28;20462;-70
2023/05/06 11:29:42;;;;;;;855.60;794.00;;;21.60;1.00;;;;;;4993284;28;20578;-70
2023/05/06 11:32:21;;;;;;;789.73;734.70;;;21.60;1.00;;;;;;4993319;28;20427;-70
2023/05/06 11:34:47;;;;;;;867.10;807.07;;;21.80;1.00;;;;;;4993289;28;20857;-71
2023/05/06 11:37:26;;;;;;;834.17;772.67;;;21.90;1.00;;;;;;4993449;28;20553;-70
2023/05/06 11:39:52;;;;;;;782.90;730.03;;;22.10;1.00;;;;;;4993473;28;20639;-71
2023/05/06 11:42:25;;;;;;;843.33;780.77;;;22.30;1.00;;;;;;4992832;28;20478;-70
2023/05/06 11:44:53;;;;;;;788.53;734.53;;;22.20;1.00;;;;;;4993412;28;20220;-70
2023/05/06 11:47:21;;;;;;;873.10;807.77;;;22.10;1.00;;;;;;4993073;28;20416;-70
2023/05/06 11:49:53;;;;;;;798.77;745.40;;;22.40;1.00;;;;;;4993343;28;20558;-70
2023/05/06 11:52:22;;;;;;;790.73;736.83;;;22.50;1.00;;;;;;4992978;28;20546;-70
2023/05/06 11:54:51;;;;;;;789.03;734.10;;;22.60;1.00;;;;;;4993429;28;20933;-70
2023/05/06 11:57:18;;;;;;;796.57;741.57;;;22.70;1.00;;;;;;4993153;28;20550;-70
2023/05/06 11:59:43;;;;;;;798.57;741.97;;;23.10;1.00;;;;;;4993238;28;20839;-71
2023/05/06 12:02:12;;;;;;;816.47;759.33;;;22.90;1.00;;;;;;4992803;28;20519;-69
2023/05/06 12:04:45;;;;;;;1046.33;931.33;;;23.00;1.00;;;;;;4998574;28;20181;-69
2023/05/06 12:07:12;;;;;;;722.00;671.20;;;22.80;1.00;;;;;;5000456;28;20977;-70
2023/05/06 12:09:42;;;;;;;829.93;769.47;;;22.70;1.00;;;;;;5002331;28;20924;-69
2023/05/06 12:12:09;;;;;;;817.23;758.17;;;22.80;1.00;;;;;;5002255;28;20933;-69